sensor_id;sensor_type;location;lat;lon;timestamp;P1;durP1;ratioP1;P2;durP2;ratioP2
61330;SDS011;71993;52.478;-1.918;2023-09-19T00:01:35;3.13;;;1.30;;
61330;SDS011;71993;52.478;-1.918;2023-09-19T00:04:06;3.58;;;1.00;;
61330;SDS011;71993;52.478;-1.918;2023-09-19T00:06:37;3.92;;;1.15;;
61330;SDS011;71993;52.478;-1.918;2023-09-19T00:09:08;2.50;;;1.08;;
61330;SDS011;71993;52.478;-1.918;2023-09-19T00:11:42;3.58;;;1.10;;
61330;SDS011;71993;52.478;-1.918;2023-09-19T00:14:14;2.65;;;0.75;;
61330;SDS011;71993;52.478;-1.918;2023-09-19T00:16:45;3.33;;;0.90;;
61330;SDS011;71993;52.478;-1.918;2023-09-19T00:19:17;2.58;;;0.90;;
61330;SDS011;71993;52.478;-1.918;2023-09-19T00:21:47;3.40;;;1.23;;
61330;SDS011;71993;52.478;-1.918;2023-09-19T00:24:17;1.92;;;0.93;;
61330;SDS011;71993;52.478;-1.918;2023-09-19T00:26:50;2.00;;;0.90;;
61330;SDS011;71993;52.478;-1.918;2023-09-19T00:29:21;2.67;;;1.10;;
61330;SDS011;71993;52.478;-1.918;2023-09-19T00:31:52;2.58;;;1.02;;
61330;SDS011;71993;52.478;-1.918;2023-09-19T00:34:23;1.65;;;0.70;;
61330;SDS011;71993;52.478;-1.918;2023-09-19T00:36:53;3.33;;;1.10;;
61330;SDS011;71993;52.478;-1.918;2023-09-19T00:39:23;1.65;;;0.80;;
61330;SDS011;71993;52.478;-1.918;2023-09-19T00:42:01;2.35;;;1.00;;
61330;SDS011;71993;52.478;-1.918;2023-09-19T00:44:32;3.47;;;1.20;;
61330;SDS011;71993;52.478;-1.918;2023-09-19T00:47:05;2.22;;;0.90;;
61330;SDS011;71993;52.478;-1.918;2023-09-19T00:49:36;4.00;;;1.13;;
61330;SDS011;71993;52.478;-1.918;2023-09-19T00:52:07;4.53;;;1.10;;
61330;SDS011;71993;52.478;-1.918;2023-09-19T00:54:38;2.13;;;0.75;;
61330;SDS011;71993;52.478;-1.918;2023-09-19T00:57:11;2.95;;;1.00;;
61330;SDS011;71993;52.478;-1.918;2023-09-19T00:59:42;2.28;;;1.00;;
61330;SDS011;71993;52.478;-1.918;2023-09-19T01:02:12;3.42;;;1.27;;
61330;SDS011;71993;52.478;-1.918;2023-09-19T01:04:44;3.38;;;1.08;;
61330;SDS011;71993;52.478;-1.918;2023-09-19T01:07:14;4.95;;;1.10;;
61330;SDS011;71993;52.478;-1.918;2023-09-19T01:09:45;2.63;;;1.00;;
61330;SDS011;71993;52.478;-1.918;2023-09-19T01:12:21;2.40;;;1.13;;
61330;SDS011;71993;52.478;-1.918;2023-09-19T01:14:54;3.67;;;1.10;;
61330;SDS011;71993;52.478;-1.918;2023-09-19T01:17:30;2.30;;;1.05;;
61330;SDS011;71993;52.478;-1.918;2023-09-19T01:20:11;2.75;;;1.00;;
61330;SDS011;71993;52.478;-1.918;2023-09-19T01:22:48;2.60;;;0.98;;
61330;SDS011;71993;52.478;-1.918;2023-09-19T01:28:19;1.67;;;0.88;;
61330;SDS011;71993;52.478;-1.918;2023-09-19T01:30:56;1.83;;;1.20;;
61330;SDS011;71993;52.478;-1.918;2023-09-19T01:33:53;2.25;;;1.00;;
61330;SDS011;71993;52.478;-1.918;2023-09-19T01:36:19;3.80;;;1.10;;
61330;SDS011;71993;52.478;-1.918;2023-09-19T01:38:53;2.95;;;0.95;;
61330;SDS011;71993;52.478;-1.918;2023-09-19T01:41:26;4.03;;;1.30;;
61330;SDS011;71993;52.478;-1.918;2023-09-19T01:44:01;3.92;;;1.10;;
61330;SDS011;71993;52.478;-1.918;2023-09-19T01:46:35;2.60;;;1.00;;
61330;SDS011;71993;52.478;-1.918;2023-09-19T01:49:11;3.08;;;1.00;;
61330;SDS011;71993;52.478;-1.918;2023-09-19T01:51:48;4.05;;;1.10;;
61330;SDS011;71993;52.478;-1.918;2023-09-19T01:54:24;2.63;;;1.08;;
61330;SDS011;71993;52.478;-1.918;2023-09-19T01:56:57;2.63;;;1.00;;
61330;SDS011;71993;52.478;-1.918;2023-09-19T01:59:35;3.80;;;1.10;;
61330;SDS011;71993;52.478;-1.918;2023-09-19T02:02:10;4.10;;;1.00;;
61330;SDS011;71993;52.478;-1.918;2023-09-19T02:04:42;2.90;;;1.00;;
61330;SDS011;71993;52.478;-1.918;2023-09-19T02:07:14;2.80;;;1.00;;
61330;SDS011;71993;52.478;-1.918;2023-09-19T02:09:45;2.72;;;1.00;;
61330;SDS011;71993;52.478;-1.918;2023-09-19T02:12:16;3.25;;;1.08;;
61330;SDS011;71993;52.478;-1.918;2023-09-19T02:14:46;3.15;;;1.30;;
61330;SDS011;71993;52.478;-1.918;2023-09-19T02:17:20;3.17;;;0.98;;
61330;SDS011;71993;52.478;-1.918;2023-09-19T02:19:50;1.95;;;0.90;;
61330;SDS011;71993;52.478;-1.918;2023-09-19T02:22:21;2.28;;;0.95;;
61330;SDS011;71993;52.478;-1.918;2023-09-19T02:24:52;3.20;;;0.93;;
61330;SDS011;71993;52.478;-1.918;2023-09-19T02:27:26;3.20;;;0.85;;
61330;SDS011;71993;52.478;-1.918;2023-09-19T02:29:57;2.58;;;1.00;;
61330;SDS011;71993;52.478;-1.918;2023-09-19T02:32:34;3.38;;;1.20;;
61330;SDS011;71993;52.478;-1.918;2023-09-19T02:35:07;2.92;;;1.00;;
61330;SDS011;71993;52.478;-1.918;2023-09-19T02:37:38;4.38;;;1.15;;
61330;SDS011;71993;52.478;-1.918;2023-09-19T02:40:12;2.53;;;0.90;;
61330;SDS011;71993;52.478;-1.918;2023-09-19T02:42:52;3.65;;;1.23;;
61330;SDS011;71993;52.478;-1.918;2023-09-19T02:45:24;3.25;;;1.10;;
61330;SDS011;71993;52.478;-1.918;2023-09-19T02:47:58;2.60;;;1.10;;
61330;SDS011;71993;52.478;-1.918;2023-09-19T02:50:30;3.47;;;1.02;;
61330;SDS011;71993;52.478;-1.918;2023-09-19T02:53:01;3.05;;;0.98;;
61330;SDS011;71993;52.478;-1.918;2023-09-19T02:55:32;2.78;;;1.30;;
61330;SDS011;71993;52.478;-1.918;2023-09-19T02:58:03;2.53;;;1.10;;
61330;SDS011;71993;52.478;-1.918;2023-09-19T03:00:35;2.60;;;1.10;;
61330;SDS011;71993;52.478;-1.918;2023-09-19T03:03:08;2.78;;;1.08;;
61330;SDS011;71993;52.478;-1.918;2023-09-19T03:05:39;2.70;;;1.20;;
61330;SDS011;71993;52.478;-1.918;2023-09-19T03:08:17;2.42;;;1.05;;
61330;SDS011;71993;52.478;-1.918;2023-09-19T03:10:49;2.95;;;1.10;;
61330;SDS011;71993;52.478;-1.918;2023-09-19T03:13:22;3.92;;;1.40;;
61330;SDS011;71993;52.478;-1.918;2023-09-19T03:15:54;3.15;;;1.13;;
61330;SDS011;71993;52.478;-1.918;2023-09-19T03:18:30;2.53;;;0.90;;
61330;SDS011;71993;52.478;-1.918;2023-09-19T03:21:00;3.47;;;1.10;;
61330;SDS011;71993;52.478;-1.918;2023-09-19T03:23:31;3.28;;;1.25;;
61330;SDS011;71993;52.478;-1.918;2023-09-19T03:26:02;3.85;;;1.13;;
61330;SDS011;71993;52.478;-1.918;2023-09-19T03:28:33;2.60;;;1.00;;
61330;SDS011;71993;52.478;-1.918;2023-09-19T03:31:05;3.08;;;1.10;;
61330;SDS011;71993;52.478;-1.918;2023-09-19T03:33:40;3.33;;;1.10;;
61330;SDS011;71993;52.478;-1.918;2023-09-19T03:36:11;3.35;;;1.10;;
61330;SDS011;71993;52.478;-1.918;2023-09-19T03:38:43;3.17;;;1.10;;
61330;SDS011;71993;52.478;-1.918;2023-09-19T03:41:14;3.42;;;0.98;;
61330;SDS011;71993;52.478;-1.918;2023-09-19T03:43:45;2.55;;;1.08;;
61330;SDS011;71993;52.478;-1.918;2023-09-19T03:46:17;3.75;;;1.10;;
61330;SDS011;71993;52.478;-1.918;2023-09-19T03:48:50;3.72;;;1.33;;
61330;SDS011;71993;52.478;-1.918;2023-09-19T03:51:22;4.57;;;1.27;;
61330;SDS011;71993;52.478;-1.918;2023-09-19T03:53:52;3.78;;;1.30;;
61330;SDS011;71993;52.478;-1.918;2023-09-19T03:56:23;4.30;;;1.42;;
61330;SDS011;71993;52.478;-1.918;2023-09-19T03:58:53;2.35;;;1.20;;
61330;SDS011;71993;52.478;-1.918;2023-09-19T04:01:24;2.55;;;1.00;;
61330;SDS011;71993;52.478;-1.918;2023-09-19T04:03:58;4.20;;;1.20;;
61330;SDS011;71993;52.478;-1.918;2023-09-19T04:06:36;3.92;;;1.20;;
61330;SDS011;71993;52.478;-1.918;2023-09-19T04:09:07;3.17;;;1.20;;
61330;SDS011;71993;52.478;-1.918;2023-09-19T04:11:40;3.60;;;1.38;;
61330;SDS011;71993;52.478;-1.918;2023-09-19T04:14:11;5.25;;;1.20;;
61330;SDS011;71993;52.478;-1.918;2023-09-19T04:16:42;2.67;;;1.30;;
61330;SDS011;71993;52.478;-1.918;2023-09-19T04:19:15;4.13;;;1.30;;
61330;SDS011;71993;52.478;-1.918;2023-09-19T04:21:46;4.05;;;1.38;;
61330;SDS011;71993;52.478;-1.918;2023-09-19T04:24:16;4.00;;;1.58;;
61330;SDS011;71993;52.478;-1.918;2023-09-19T04:26:47;3.08;;;1.02;;
61330;SDS011;71993;52.478;-1.918;2023-09-19T04:29:17;3.22;;;1.35;;
61330;SDS011;71993;52.478;-1.918;2023-09-19T04:31:48;5.45;;;1.30;;
61330;SDS011;71993;52.478;-1.918;2023-09-19T04:34:22;3.90;;;1.50;;
61330;SDS011;71993;52.478;-1.918;2023-09-19T04:36:52;3.65;;;1.30;;
61330;SDS011;71993;52.478;-1.918;2023-09-19T04:39:24;5.25;;;1.65;;
61330;SDS011;71993;52.478;-1.918;2023-09-19T04:41:55;3.10;;;1.15;;
61330;SDS011;71993;52.478;-1.918;2023-09-19T04:44:27;4.65;;;1.20;;
61330;SDS011;71993;52.478;-1.918;2023-09-19T04:46:58;3.65;;;1.30;;
61330;SDS011;71993;52.478;-1.918;2023-09-19T04:49:32;3.20;;;1.30;;
61330;SDS011;71993;52.478;-1.918;2023-09-19T04:52:02;4.68;;;1.25;;
61330;SDS011;71993;52.478;-1.918;2023-09-19T04:54:33;5.07;;;1.52;;
61330;SDS011;71993;52.478;-1.918;2023-09-19T04:57:04;4.35;;;1.30;;
61330;SDS011;71993;52.478;-1.918;2023-09-19T04:59:35;4.00;;;1.40;;
61330;SDS011;71993;52.478;-1.918;2023-09-19T05:02:08;3.63;;;1.33;;
61330;SDS011;71993;52.478;-1.918;2023-09-19T05:04:42;5.47;;;1.40;;
61330;SDS011;71993;52.478;-1.918;2023-09-19T05:07:13;4.38;;;1.33;;
61330;SDS011;71993;52.478;-1.918;2023-09-19T05:09:46;4.57;;;1.33;;
61330;SDS011;71993;52.478;-1.918;2023-09-19T05:12:18;4.25;;;1.55;;
61330;SDS011;71993;52.478;-1.918;2023-09-19T05:15:02;4.30;;;1.33;;
61330;SDS011;71993;52.478;-1.918;2023-09-19T05:17:34;5.45;;;1.65;;
61330;SDS011;71993;52.478;-1.918;2023-09-19T05:20:09;3.83;;;1.30;;
61330;SDS011;71993;52.478;-1.918;2023-09-19T05:22:57;3.40;;;1.10;;
61330;SDS011;71993;52.478;-1.918;2023-09-19T05:25:29;5.00;;;1.40;;
61330;SDS011;71993;52.478;-1.918;2023-09-19T05:27:59;7.10;;;1.85;;
61330;SDS011;71993;52.478;-1.918;2023-09-19T05:30:33;5.13;;;1.67;;
61330;SDS011;71993;52.478;-1.918;2023-09-19T05:33:03;5.25;;;1.52;;
61330;SDS011;71993;52.478;-1.918;2023-09-19T05:35:37;3.38;;;1.27;;
61330;SDS011;71993;52.478;-1.918;2023-09-19T05:38:09;3.58;;;1.48;;
61330;SDS011;71993;52.478;-1.918;2023-09-19T05:40:41;2.88;;;1.23;;
61330;SDS011;71993;52.478;-1.918;2023-09-19T05:43:13;2.50;;;1.17;;
61330;SDS011;71993;52.478;-1.918;2023-09-19T05:45:44;4.57;;;1.30;;
61330;SDS011;71993;52.478;-1.918;2023-09-19T05:48:15;3.25;;;1.10;;
61330;SDS011;71993;52.478;-1.918;2023-09-19T05:50:48;3.67;;;1.38;;
61330;SDS011;71993;52.478;-1.918;2023-09-19T05:53:20;4.30;;;1.30;;
61330;SDS011;71993;52.478;-1.918;2023-09-19T05:55:50;3.50;;;1.45;;
61330;SDS011;71993;52.478;-1.918;2023-09-19T05:58:21;3.13;;;1.30;;
61330;SDS011;71993;52.478;-1.918;2023-09-19T06:00:51;4.20;;;1.33;;
61330;SDS011;71993;52.478;-1.918;2023-09-19T06:03:22;3.30;;;1.40;;
61330;SDS011;71993;52.478;-1.918;2023-09-19T06:05:57;5.22;;;1.33;;
61330;SDS011;71993;52.478;-1.918;2023-09-19T06:08:27;3.72;;;1.30;;
61330;SDS011;71993;52.478;-1.918;2023-09-19T06:10:58;3.58;;;1.20;;
61330;SDS011;71993;52.478;-1.918;2023-09-19T06:13:29;2.92;;;1.10;;
61330;SDS011;71993;52.478;-1.918;2023-09-19T06:16:01;4.07;;;1.23;;
61330;SDS011;71993;52.478;-1.918;2023-09-19T06:18:32;2.17;;;1.00;;
61330;SDS011;71993;52.478;-1.918;2023-09-19T06:21:06;3.97;;;1.30;;
61330;SDS011;71993;52.478;-1.918;2023-09-19T06:23:37;4.47;;;1.40;;
61330;SDS011;71993;52.478;-1.918;2023-09-19T06:26:08;2.97;;;1.20;;
61330;SDS011;71993;52.478;-1.918;2023-09-19T06:28:40;2.53;;;1.10;;
61330;SDS011;71993;52.478;-1.918;2023-09-19T06:31:11;2.83;;;1.00;;
61330;SDS011;71993;52.478;-1.918;2023-09-19T06:33:42;3.25;;;1.17;;
61330;SDS011;71993;52.478;-1.918;2023-09-19T06:36:15;3.30;;;1.33;;
61330;SDS011;71993;52.478;-1.918;2023-09-19T06:38:46;3.10;;;1.00;;
61330;SDS011;71993;52.478;-1.918;2023-09-19T06:41:18;3.03;;;1.20;;
61330;SDS011;71993;52.478;-1.918;2023-09-19T06:43:52;3.58;;;1.20;;
61330;SDS011;71993;52.478;-1.918;2023-09-19T06:46:22;3.85;;;1.45;;
61330;SDS011;71993;52.478;-1.918;2023-09-19T06:48:53;2.33;;;1.10;;
61330;SDS011;71993;52.478;-1.918;2023-09-19T06:51:26;4.25;;;1.48;;
61330;SDS011;71993;52.478;-1.918;2023-09-19T06:53:57;4.07;;;1.45;;
61330;SDS011;71993;52.478;-1.918;2023-09-19T06:56:27;2.90;;;1.40;;
61330;SDS011;71993;52.478;-1.918;2023-09-19T06:58:58;3.03;;;1.40;;
61330;SDS011;71993;52.478;-1.918;2023-09-19T07:01:30;3.38;;;1.20;;
61330;SDS011;71993;52.478;-1.918;2023-09-19T07:04:07;3.67;;;1.65;;
61330;SDS011;71993;52.478;-1.918;2023-09-19T07:06:40;3.15;;;1.38;;
61330;SDS011;71993;52.478;-1.918;2023-09-19T07:09:10;3.05;;;1.60;;
61330;SDS011;71993;52.478;-1.918;2023-09-19T07:11:41;3.35;;;1.52;;
61330;SDS011;71993;52.478;-1.918;2023-09-19T07:14:12;4.38;;;1.30;;
61330;SDS011;71993;52.478;-1.918;2023-09-19T07:16:43;3.65;;;1.40;;
61330;SDS011;71993;52.478;-1.918;2023-09-19T07:19:17;3.75;;;1.58;;
61330;SDS011;71993;52.478;-1.918;2023-09-19T07:21:50;4.78;;;1.75;;
61330;SDS011;71993;52.478;-1.918;2023-09-19T07:24:21;3.78;;;1.60;;
61330;SDS011;71993;52.478;-1.918;2023-09-19T07:26:54;4.60;;;1.90;;
61330;SDS011;71993;52.478;-1.918;2023-09-19T07:29:24;4.00;;;1.55;;
61330;SDS011;71993;52.478;-1.918;2023-09-19T07:31:57;4.35;;;1.80;;
61330;SDS011;71993;52.478;-1.918;2023-09-19T07:34:28;3.72;;;1.73;;
61330;SDS011;71993;52.478;-1.918;2023-09-19T07:37:01;4.97;;;1.83;;
61330;SDS011;71993;52.478;-1.918;2023-09-19T07:39:34;3.70;;;2.03;;
61330;SDS011;71993;52.478;-1.918;2023-09-19T07:42:04;2.85;;;1.70;;
61330;SDS011;71993;52.478;-1.918;2023-09-19T07:44:35;4.88;;;1.80;;
61330;SDS011;71993;52.478;-1.918;2023-09-19T07:47:05;3.95;;;1.50;;
61330;SDS011;71993;52.478;-1.918;2023-09-19T07:49:37;4.40;;;1.67;;
61330;SDS011;71993;52.478;-1.918;2023-09-19T07:52:12;3.60;;;1.83;;
61330;SDS011;71993;52.478;-1.918;2023-09-19T07:54:43;3.65;;;1.65;;
61330;SDS011;71993;52.478;-1.918;2023-09-19T07:57:15;4.30;;;2.10;;
61330;SDS011;71993;52.478;-1.918;2023-09-19T07:59:47;4.07;;;1.80;;
61330;SDS011;71993;52.478;-1.918;2023-09-19T08:02:17;4.82;;;2.10;;
61330;SDS011;71993;52.478;-1.918;2023-09-19T08:04:48;4.80;;;1.75;;
61330;SDS011;71993;52.478;-1.918;2023-09-19T08:07:22;4.07;;;2.00;;
61330;SDS011;71993;52.478;-1.918;2023-09-19T08:09:52;4.63;;;1.77;;
61330;SDS011;71993;52.478;-1.918;2023-09-19T08:12:23;3.67;;;1.63;;
61330;SDS011;71993;52.478;-1.918;2023-09-19T08:14:53;4.18;;;1.90;;
61330;SDS011;71993;52.478;-1.918;2023-09-19T08:17:24;3.47;;;1.50;;
61330;SDS011;71993;52.478;-1.918;2023-09-19T08:19:54;3.95;;;1.73;;
61330;SDS011;71993;52.478;-1.918;2023-09-19T08:22:30;4.00;;;1.98;;
61330;SDS011;71993;52.478;-1.918;2023-09-19T08:25:02;3.35;;;1.90;;
61330;SDS011;71993;52.478;-1.918;2023-09-19T08:27:34;5.28;;;1.80;;
61330;SDS011;71993;52.478;-1.918;2023-09-19T08:30:04;3.20;;;1.60;;
61330;SDS011;71993;52.478;-1.918;2023-09-19T08:32:35;3.30;;;1.70;;
61330;SDS011;71993;52.478;-1.918;2023-09-19T08:35:06;3.80;;;1.70;;
61330;SDS011;71993;52.478;-1.918;2023-09-19T08:37:39;2.10;;;1.20;;
61330;SDS011;71993;52.478;-1.918;2023-09-19T08:40:10;4.25;;;1.70;;
61330;SDS011;71993;52.478;-1.918;2023-09-19T08:42:47;3.35;;;1.50;;
61330;SDS011;71993;52.478;-1.918;2023-09-19T08:45:19;2.75;;;1.40;;
61330;SDS011;71993;52.478;-1.918;2023-09-19T08:47:51;4.00;;;1.55;;
61330;SDS011;71993;52.478;-1.918;2023-09-19T08:50:26;5.30;;;1.60;;
61330;SDS011;71993;52.478;-1.918;2023-09-19T08:53:01;3.25;;;1.40;;
61330;SDS011;71993;52.478;-1.918;2023-09-19T08:55:36;4.85;;;1.65;;
61330;SDS011;71993;52.478;-1.918;2023-09-19T08:58:10;3.70;;;1.25;;
61330;SDS011;71993;52.478;-1.918;2023-09-19T09:00:43;2.65;;;1.30;;
61330;SDS011;71993;52.478;-1.918;2023-09-19T09:03:14;3.28;;;1.20;;
61330;SDS011;71993;52.478;-1.918;2023-09-19T09:05:48;2.92;;;1.45;;
61330;SDS011;71993;52.478;-1.918;2023-09-19T09:08:22;3.45;;;1.20;;
61330;SDS011;71993;52.478;-1.918;2023-09-19T09:10:53;2.85;;;1.35;;
61330;SDS011;71993;52.478;-1.918;2023-09-19T09:13:25;3.45;;;1.50;;
61330;SDS011;71993;52.478;-1.918;2023-09-19T09:15:56;2.95;;;1.33;;
61330;SDS011;71993;52.478;-1.918;2023-09-19T09:18:27;2.72;;;1.17;;
61330;SDS011;71993;52.478;-1.918;2023-09-19T09:20:58;2.88;;;1.20;;
61330;SDS011;71993;52.478;-1.918;2023-09-19T09:23:31;3.95;;;1.55;;
61330;SDS011;71993;52.478;-1.918;2023-09-19T09:26:02;4.28;;;1.40;;
61330;SDS011;71993;52.478;-1.918;2023-09-19T09:28:34;2.28;;;1.23;;
61330;SDS011;71993;52.478;-1.918;2023-09-19T09:31:06;2.60;;;1.50;;
61330;SDS011;71993;52.478;-1.918;2023-09-19T09:33:55;3.67;;;1.30;;
61330;SDS011;71993;52.478;-1.918;2023-09-19T09:36:35;2.38;;;1.20;;
61330;SDS011;71993;52.478;-1.918;2023-09-19T09:39:08;3.28;;;1.27;;
61330;SDS011;71993;52.478;-1.918;2023-09-19T09:41:46;3.17;;;1.48;;
61330;SDS011;71993;52.478;-1.918;2023-09-19T09:44:17;2.38;;;1.20;;
61330;SDS011;71993;52.478;-1.918;2023-09-19T09:46:48;2.50;;;1.20;;
61330;SDS011;71993;52.478;-1.918;2023-09-19T09:49:43;2.40;;;1.20;;
61330;SDS011;71993;52.478;-1.918;2023-09-19T09:52:21;2.08;;;1.10;;
61330;SDS011;71993;52.478;-1.918;2023-09-19T09:55:03;1.88;;;1.10;;
61330;SDS011;71993;52.478;-1.918;2023-09-19T09:57:35;2.35;;;1.20;;
61330;SDS011;71993;52.478;-1.918;2023-09-19T10:00:09;2.78;;;1.20;;
61330;SDS011;71993;52.478;-1.918;2023-09-19T10:02:48;2.42;;;1.10;;
61330;SDS011;71993;52.478;-1.918;2023-09-19T10:05:19;2.30;;;1.10;;
61330;SDS011;71993;52.478;-1.918;2023-09-19T10:07:55;2.83;;;1.27;;
61330;SDS011;71993;52.478;-1.918;2023-09-19T10:10:32;2.00;;;1.08;;
61330;SDS011;71993;52.478;-1.918;2023-09-19T10:13:20;2.45;;;1.15;;
61330;SDS011;71993;52.478;-1.918;2023-09-19T10:15:52;1.80;;;1.00;;
61330;SDS011;71993;52.478;-1.918;2023-09-19T10:18:24;2.25;;;1.23;;
61330;SDS011;71993;52.478;-1.918;2023-09-19T10:20:55;2.13;;;1.13;;
61330;SDS011;71993;52.478;-1.918;2023-09-19T10:23:26;2.08;;;1.23;;
61330;SDS011;71993;52.478;-1.918;2023-09-19T10:26:00;3.38;;;1.17;;
61330;SDS011;71993;52.478;-1.918;2023-09-19T10:28:33;1.73;;;1.05;;
61330;SDS011;71993;52.478;-1.918;2023-09-19T10:31:05;1.77;;;1.10;;
61330;SDS011;71993;52.478;-1.918;2023-09-19T10:33:48;2.00;;;1.15;;
61330;SDS011;71993;52.478;-1.918;2023-09-19T10:39:09;1.73;;;0.75;;
61330;SDS011;71993;52.478;-1.918;2023-09-19T10:41:43;1.25;;;0.80;;
61330;SDS011;71993;52.478;-1.918;2023-09-19T10:44:24;1.95;;;0.77;;
61330;SDS011;71993;52.478;-1.918;2023-09-19T10:46:55;1.80;;;0.90;;
61330;SDS011;71993;52.478;-1.918;2023-09-19T10:49:29;1.23;;;0.70;;
61330;SDS011;71993;52.478;-1.918;2023-09-19T10:52:01;1.90;;;0.65;;
61330;SDS011;71993;52.478;-1.918;2023-09-19T10:54:33;1.95;;;0.95;;
61330;SDS011;71993;52.478;-1.918;2023-09-19T10:57:11;1.30;;;1.00;;
61330;SDS011;71993;52.478;-1.918;2023-09-19T11:05:36;2.37;;;0.90;;
61330;SDS011;71993;52.478;-1.918;2023-09-19T11:08:08;1.60;;;0.70;;
61330;SDS011;71993;52.478;-1.918;2023-09-19T11:10:45;1.20;;;0.65;;
61330;SDS011;71993;52.478;-1.918;2023-09-19T11:13:26;2.50;;;0.73;;
61330;SDS011;71993;52.478;-1.918;2023-09-19T11:21:41;1.38;;;0.60;;
61330;SDS011;71993;52.478;-1.918;2023-09-19T11:27:08;1.23;;;0.77;;
61330;SDS011;71993;52.478;-1.918;2023-09-19T11:29:43;0.88;;;0.50;;
61330;SDS011;71993;52.478;-1.918;2023-09-19T11:32:15;0.98;;;0.65;;
61330;SDS011;71993;52.478;-1.918;2023-09-19T11:34:48;1.00;;;0.70;;
61330;SDS011;71993;52.478;-1.918;2023-09-19T11:40:07;1.40;;;0.50;;
61330;SDS011;71993;52.478;-1.918;2023-09-19T11:42:43;1.05;;;0.47;;
61330;SDS011;71993;52.478;-1.918;2023-09-19T11:48:18;1.17;;;0.60;;
61330;SDS011;71993;52.478;-1.918;2023-09-19T11:50:49;0.82;;;0.50;;
61330;SDS011;71993;52.478;-1.918;2023-09-19T11:53:20;1.77;;;0.90;;
61330;SDS011;71993;52.478;-1.918;2023-09-19T11:55:51;1.75;;;0.60;;
61330;SDS011;71993;52.478;-1.918;2023-09-19T11:58:22;1.30;;;0.60;;
61330;SDS011;71993;52.478;-1.918;2023-09-19T12:00:59;0.68;;;0.60;;
61330;SDS011;71993;52.478;-1.918;2023-09-19T12:03:37;2.67;;;0.90;;
61330;SDS011;71993;52.478;-1.918;2023-09-19T12:06:12;3.55;;;1.05;;
61330;SDS011;71993;52.478;-1.918;2023-09-19T12:08:43;3.20;;;1.20;;
61330;SDS011;71993;52.478;-1.918;2023-09-19T12:11:14;3.22;;;1.10;;
61330;SDS011;71993;52.478;-1.918;2023-09-19T12:13:47;4.18;;;1.38;;
61330;SDS011;71993;52.478;-1.918;2023-09-19T12:16:19;2.55;;;1.20;;
61330;SDS011;71993;52.478;-1.918;2023-09-19T12:18:59;2.67;;;1.27;;
61330;SDS011;71993;52.478;-1.918;2023-09-19T12:21:54;3.38;;;1.33;;
61330;SDS011;71993;52.478;-1.918;2023-09-19T12:24:26;5.15;;;1.42;;
61330;SDS011;71993;52.478;-1.918;2023-09-19T12:27:00;2.92;;;1.40;;
61330;SDS011;71993;52.478;-1.918;2023-09-19T12:29:32;2.88;;;1.23;;
61330;SDS011;71993;52.478;-1.918;2023-09-19T12:32:11;3.15;;;1.20;;
61330;SDS011;71993;52.478;-1.918;2023-09-19T12:34:52;1.88;;;1.00;;
61330;SDS011;71993;52.478;-1.918;2023-09-19T12:37:23;2.15;;;1.10;;
61330;SDS011;71993;52.478;-1.918;2023-09-19T12:40:04;2.97;;;1.08;;
61330;SDS011;71993;52.478;-1.918;2023-09-19T12:42:51;2.67;;;1.20;;
61330;SDS011;71993;52.478;-1.918;2023-09-19T12:45:24;1.83;;;0.90;;
61330;SDS011;71993;52.478;-1.918;2023-09-19T12:53:28;1.63;;;0.80;;
61330;SDS011;71993;52.478;-1.918;2023-09-19T12:56:01;1.02;;;0.70;;
61330;SDS011;71993;52.478;-1.918;2023-09-19T12:58:33;1.38;;;0.70;;
61330;SDS011;71993;52.478;-1.918;2023-09-19T13:01:13;2.53;;;0.70;;
61330;SDS011;71993;52.478;-1.918;2023-09-19T13:06:15;1.38;;;0.88;;
61330;SDS011;71993;52.478;-1.918;2023-09-19T13:09:07;2.10;;;0.65;;
61330;SDS011;71993;52.478;-1.918;2023-09-19T13:11:37;1.40;;;0.55;;
61330;SDS011;71993;52.478;-1.918;2023-09-19T13:14:14;1.00;;;0.60;;
61330;SDS011;71993;52.478;-1.918;2023-09-19T13:16:55;0.90;;;0.50;;
61330;SDS011;71993;52.478;-1.918;2023-09-19T13:19:39;0.52;;;0.43;;
61330;SDS011;71993;52.478;-1.918;2023-09-19T13:25:01;1.55;;;0.60;;
61330;SDS011;71993;52.478;-1.918;2023-09-19T13:27:31;0.65;;;0.40;;
61330;SDS011;71993;52.478;-1.918;2023-09-19T13:30:02;0.63;;;0.40;;
61330;SDS011;71993;52.478;-1.918;2023-09-19T13:32:32;1.83;;;0.50;;
61330;SDS011;71993;52.478;-1.918;2023-09-19T13:35:03;0.80;;;0.52;;
61330;SDS011;71993;52.478;-1.918;2023-09-19T13:37:38;0.60;;;0.50;;
61330;SDS011;71993;52.478;-1.918;2023-09-19T13:40:11;0.50;;;0.40;;
61330;SDS011;71993;52.478;-1.918;2023-09-19T13:42:44;1.20;;;0.50;;
61330;SDS011;71993;52.478;-1.918;2023-09-19T13:45:15;1.80;;;0.50;;
61330;SDS011;71993;52.478;-1.918;2023-09-19T13:47:49;1.20;;;0.60;;
61330;SDS011;71993;52.478;-1.918;2023-09-19T13:50:21;0.90;;;0.50;;
61330;SDS011;71993;52.478;-1.918;2023-09-19T13:52:52;1.05;;;0.57;;
61330;SDS011;71993;52.478;-1.918;2023-09-19T13:55:26;0.60;;;0.40;;
61330;SDS011;71993;52.478;-1.918;2023-09-19T13:57:56;0.70;;;0.43;;
61330;SDS011;71993;52.478;-1.918;2023-09-19T14:00:27;1.50;;;0.50;;
61330;SDS011;71993;52.478;-1.918;2023-09-19T14:02:58;1.15;;;0.60;;
61330;SDS011;71993;52.478;-1.918;2023-09-19T14:05:28;1.42;;;0.77;;
61330;SDS011;71993;52.478;-1.918;2023-09-19T14:07:59;1.50;;;0.60;;
61330;SDS011;71993;52.478;-1.918;2023-09-19T14:10:33;1.20;;;0.50;;
61330;SDS011;71993;52.478;-1.918;2023-09-19T14:13:04;0.82;;;0.43;;
61330;SDS011;71993;52.478;-1.918;2023-09-19T14:15:36;1.45;;;0.57;;
61330;SDS011;71993;52.478;-1.918;2023-09-19T14:18:07;1.42;;;0.80;;
61330;SDS011;71993;52.478;-1.918;2023-09-19T14:20:37;2.17;;;0.73;;
61330;SDS011;71993;52.478;-1.918;2023-09-19T14:23:09;3.40;;;0.80;;
61330;SDS011;71993;52.478;-1.918;2023-09-19T14:25:42;0.93;;;0.60;;
61330;SDS011;71993;52.478;-1.918;2023-09-19T14:28:13;3.38;;;1.23;;
61330;SDS011;71993;52.478;-1.918;2023-09-19T14:30:43;2.95;;;1.23;;
61330;SDS011;71993;52.478;-1.918;2023-09-19T14:33:14;5.82;;;1.38;;
61330;SDS011;71993;52.478;-1.918;2023-09-19T14:35:44;3.05;;;1.10;;
61330;SDS011;71993;52.478;-1.918;2023-09-19T14:38:15;3.85;;;1.35;;
61330;SDS011;71993;52.478;-1.918;2023-09-19T14:40:50;4.82;;;1.27;;
61330;SDS011;71993;52.478;-1.918;2023-09-19T14:43:29;4.57;;;1.20;;
61330;SDS011;71993;52.478;-1.918;2023-09-19T14:46:14;4.50;;;1.50;;
61330;SDS011;71993;52.478;-1.918;2023-09-19T14:48:59;4.30;;;1.60;;
61330;SDS011;71993;52.478;-1.918;2023-09-19T14:51:45;4.72;;;1.30;;
61330;SDS011;71993;52.478;-1.918;2023-09-19T14:54:15;6.60;;;1.90;;
61330;SDS011;71993;52.478;-1.918;2023-09-19T14:56:49;5.55;;;1.90;;
61330;SDS011;71993;52.478;-1.918;2023-09-19T14:59:31;7.35;;;2.20;;
61330;SDS011;71993;52.478;-1.918;2023-09-19T15:02:04;4.70;;;1.77;;
61330;SDS011;71993;52.478;-1.918;2023-09-19T15:04:39;6.38;;;1.98;;
61330;SDS011;71993;52.478;-1.918;2023-09-19T15:07:14;5.28;;;1.80;;
61330;SDS011;71993;52.478;-1.918;2023-09-19T15:09:45;5.32;;;1.80;;
61330;SDS011;71993;52.478;-1.918;2023-09-19T15:12:18;7.50;;;2.22;;
61330;SDS011;71993;52.478;-1.918;2023-09-19T15:14:51;6.05;;;1.85;;
61330;SDS011;71993;52.478;-1.918;2023-09-19T15:17:21;7.25;;;2.22;;
61330;SDS011;71993;52.478;-1.918;2023-09-19T15:19:52;8.88;;;2.22;;
61330;SDS011;71993;52.478;-1.918;2023-09-19T15:22:23;8.40;;;2.20;;
61330;SDS011;71993;52.478;-1.918;2023-09-19T15:24:54;9.90;;;1.92;;
61330;SDS011;71993;52.478;-1.918;2023-09-19T15:27:27;4.35;;;1.60;;
61330;SDS011;71993;52.478;-1.918;2023-09-19T15:29:58;7.30;;;2.00;;
61330;SDS011;71993;52.478;-1.918;2023-09-19T15:32:30;6.05;;;1.70;;
61330;SDS011;71993;52.478;-1.918;2023-09-19T15:35:00;7.30;;;1.83;;
61330;SDS011;71993;52.478;-1.918;2023-09-19T15:37:31;5.78;;;1.95;;
61330;SDS011;71993;52.478;-1.918;2023-09-19T15:40:02;6.05;;;1.90;;
61330;SDS011;71993;52.478;-1.918;2023-09-19T15:42:38;6.68;;;1.90;;
61330;SDS011;71993;52.478;-1.918;2023-09-19T15:45:10;7.70;;;1.92;;